createdAt,value
2022-09-09T00:01:25.259Z,6.23
2022-09-09T00:04:03.979Z,4.37
2022-09-09T00:07:09.568Z,4.33
2022-09-09T00:10:17.862Z,6.10
2022-09-09T00:12:58.224Z,6.77
2022-09-09T00:15:47.853Z,5.27
2022-09-09T00:18:23.744Z,5.50
2022-09-09T00:20:59.481Z,7.03
2022-09-09T00:23:31.368Z,4.17
2022-09-09T00:26:14.914Z,5.43
2022-09-09T00:28:53.586Z,4.03
2022-09-09T00:31:26.446Z,5.37
2022-09-09T00:33:54.638Z,4.00
2022-09-09T00:36:27.371Z,6.77
2022-09-09T00:38:58.278Z,4.03
2022-09-09T00:41:47.137Z,5.40
2022-09-09T00:44:37.554Z,5.80
2022-09-09T00:47:35.369Z,6.57
2022-09-09T00:50:34.592Z,4.43
2022-09-09T00:53:17.721Z,4.53
2022-09-09T00:55:58.586Z,4.13
2022-09-09T00:58:25.637Z,4.43
2022-09-09T01:01:03.720Z,5.40
2022-09-09T01:03:42.842Z,5.47
2022-09-09T01:06:32.808Z,4.20
2022-09-09T01:09:11.745Z,3.83
2022-09-09T01:11:56.337Z,9.53
2022-09-09T01:14:33.779Z,3.43
2022-09-09T01:17:08.482Z,5.13
2022-09-09T01:19:46.146Z,4.13
2022-09-09T01:22:39.866Z,6.20
2022-09-09T01:25:41.272Z,4.57
2022-09-09T01:28:21.070Z,3.20
2022-09-09T01:30:48.511Z,4.33
2022-09-09T01:33:19.182Z,3.47
2022-09-09T01:36:01.684Z,4.00
2022-09-09T01:38:34.568Z,6.03
2022-09-09T01:41:01.987Z,4.33
2022-09-09T01:43:39.285Z,4.37
2022-09-09T01:46:06.562Z,4.07
2022-09-09T01:48:35.246Z,4.40
2022-09-09T01:51:05.874Z,5.60
2022-09-09T01:53:32.879Z,3.83
2022-09-09T01:56:45.787Z,4.23
2022-09-09T01:59:22.717Z,6.00
2022-09-09T02:02:09.576Z,3.53
2022-09-09T02:04:43.773Z,4.63
2022-09-09T02:07:26.741Z,7.70
2022-09-09T02:10:03.286Z,3.97
2022-09-09T02:12:31.458Z,3.13
2022-09-09T02:15:08.851Z,3.57
2022-09-09T02:17:47.661Z,34.30
2022-09-09T02:20:20.495Z,35.90
2022-09-09T02:22:57.403Z,11.73
2022-09-09T02:25:30.378Z,29.67
2022-09-09T02:28:10.573Z,24.20
2022-09-09T02:30:41.184Z,14.70
2022-09-09T02:33:11.624Z,10.23
2022-09-09T02:35:51.365Z,6.80
2022-09-09T02:38:22.866Z,11.43
2022-09-09T02:40:59.109Z,5.23
2022-09-09T02:43:26.312Z,5.50
2022-09-09T02:46:06.075Z,5.17
2022-09-09T02:48:51.729Z,5.10
2022-09-09T02:51:38.552Z,5.13
2022-09-09T02:54:29.113Z,4.50
2022-09-09T02:56:57.241Z,4.37
2022-09-09T02:59:33.218Z,4.23
2022-09-09T03:02:00.210Z,3.67
2022-09-09T03:04:27.563Z,4.67
2022-09-09T03:06:54.829Z,5.03
2022-09-09T03:09:22.354Z,4.17
2022-09-09T03:11:51.000Z,3.67
2022-09-09T03:14:22.149Z,3.60
2022-09-09T03:16:49.499Z,3.80
2022-09-09T03:19:16.979Z,2.90
2022-09-09T03:21:44.151Z,3.27
2022-09-09T03:24:11.109Z,3.10
2022-09-09T03:26:38.655Z,4.00
2022-09-09T03:29:08.829Z,4.87
2022-09-09T03:31:36.977Z,4.10
2022-09-09T03:34:04.091Z,5.60
2022-09-09T03:36:34.214Z,6.77
2022-09-09T03:39:01.931Z,7.63
2022-09-09T03:41:31.561Z,3.93
2022-09-09T03:43:59.843Z,7.10
2022-09-09T03:46:29.525Z,5.77
2022-09-09T03:48:56.495Z,4.00
2022-09-09T03:51:23.661Z,4.53
2022-09-09T03:53:51.342Z,4.57
2022-09-09T03:56:18.231Z,3.77
2022-09-09T03:58:46.233Z,3.73
2022-09-09T04:01:14.835Z,3.90
2022-09-09T04:03:43.659Z,6.00
2022-09-09T04:06:14.273Z,3.37
2022-09-09T04:08:42.751Z,4.67
2022-09-09T04:11:10.708Z,4.03
2022-09-09T04:13:40.139Z,5.00
2022-09-09T04:16:11.825Z,3.50
2022-09-09T04:18:39.485Z,6.20
2022-09-09T04:21:08.947Z,6.70
2022-09-09T04:23:37.102Z,4.10
2022-09-09T04:26:05.816Z,8.13
2022-09-09T04:28:36.580Z,7.20
2022-09-09T04:31:15.847Z,6.10
2022-09-09T04:33:44.817Z,9.40
2022-09-09T04:36:11.879Z,7.13
2022-09-09T04:38:39.246Z,6.70
2022-09-09T04:41:07.095Z,4.23
2022-09-09T04:43:35.594Z,6.47
2022-09-09T04:46:06.566Z,4.10
2022-09-09T04:48:34.314Z,6.53
2022-09-09T04:51:05.912Z,4.83
2022-09-09T04:53:35.260Z,4.73
2022-09-09T04:56:07.305Z,4.37
2022-09-09T04:58:39.756Z,6.43
2022-09-09T05:01:09.804Z,6.10
2022-09-09T05:03:39.984Z,6.73
2022-09-09T05:06:12.331Z,5.47
2022-09-09T05:08:40.202Z,5.30
2022-09-09T05:11:24.390Z,5.37
2022-09-09T05:13:55.039Z,8.10
2022-09-09T05:16:23.632Z,7.17
2022-09-09T05:18:52.214Z,5.03
2022-09-09T05:21:22.396Z,5.13
2022-09-09T05:23:49.474Z,4.20
2022-09-09T05:26:18.710Z,5.07
2022-09-09T05:28:48.807Z,3.50
2022-09-09T05:31:18.705Z,5.33
2022-09-09T05:33:50.279Z,4.27
2022-09-09T05:36:19.942Z,4.90
2022-09-09T05:38:49.131Z,4.33
2022-09-09T05:41:18.127Z,3.83
2022-09-09T05:43:47.825Z,4.37
2022-09-09T05:46:20.147Z,4.63
2022-09-09T05:48:54.280Z,4.70
2022-09-09T05:51:29.100Z,5.17
2022-09-09T05:54:01.204Z,6.23
2022-09-09T05:56:33.425Z,5.53
2022-09-09T05:59:01.906Z,4.70
2022-09-09T06:01:32.198Z,6.90
2022-09-09T06:03:59.923Z,5.37
2022-09-09T06:06:31.304Z,5.97
2022-09-09T06:09:00.023Z,5.73
2022-09-09T06:11:32.483Z,4.47
2022-09-09T06:14:01.407Z,4.23
2022-09-09T06:16:33.720Z,4.83
2022-09-09T06:19:04.189Z,8.23
2022-09-09T06:21:35.450Z,5.37
2022-09-09T06:24:04.390Z,5.33
2022-09-09T06:26:36.391Z,4.83
2022-09-09T06:29:05.256Z,4.37
2022-09-09T06:31:35.425Z,4.77
2022-09-09T06:34:09.952Z,6.20
2022-09-09T06:36:41.198Z,5.53
2022-09-09T06:39:14.796Z,5.60
2022-09-09T06:41:43.333Z,7.07
2022-09-09T06:44:23.743Z,7.43
2022-09-09T06:46:51.105Z,4.73
2022-09-09T06:49:18.112Z,4.73
2022-09-09T06:51:48.157Z,6.80
2022-09-09T06:54:15.680Z,5.93
2022-09-09T06:56:46.505Z,4.87
2022-09-09T06:59:22.762Z,5.27
2022-09-09T07:01:55.820Z,6.33
2022-09-09T07:04:23.842Z,4.90
2022-09-09T07:06:53.318Z,6.40
2022-09-09T07:09:24.836Z,5.73
2022-09-09T07:11:54.122Z,10.20
2022-09-09T07:14:23.292Z,6.03
2022-09-09T07:16:59.686Z,4.23
2022-09-09T07:19:29.961Z,4.95
2022-09-09T07:21:57.926Z,6.20
2022-09-09T07:24:25.681Z,6.60
2022-09-09T07:26:53.238Z,6.45
2022-09-09T07:29:21.357Z,7.40
2022-09-09T07:31:49.929Z,7.93
2022-09-09T07:34:22.647Z,4.55
2022-09-09T07:36:49.857Z,5.22
2022-09-09T07:39:18.835Z,6.07
2022-09-09T07:41:55.555Z,6.70
2022-09-09T07:44:28.275Z,7.47
2022-09-09T07:47:03.234Z,4.85
2022-09-09T07:49:35.821Z,6.63
2022-09-09T07:52:04.887Z,6.80
2022-09-09T07:54:33.143Z,7.05
2022-09-09T07:57:01.310Z,7.28
2022-09-09T07:59:31.392Z,5.32
2022-09-09T08:01:59.404Z,5.63
2022-09-09T08:04:29.471Z,6.55
2022-09-09T08:06:59.147Z,7.40
2022-09-09T08:09:29.814Z,7.13
2022-09-09T08:12:10.323Z,6.53
2022-09-09T08:14:37.447Z,4.57
2022-09-09T08:17:04.346Z,5.05
2022-09-09T08:19:37.086Z,6.57
2022-09-09T08:22:08.847Z,7.90
2022-09-09T08:24:37.978Z,4.57
2022-09-09T08:27:05.781Z,5.70
2022-09-09T08:29:32.715Z,6.75
2022-09-09T08:32:00.872Z,7.13
2022-09-09T08:34:29.121Z,4.22
2022-09-09T08:36:58.571Z,5.45
2022-09-09T08:39:33.833Z,4.13
2022-09-09T08:42:03.643Z,4.97
2022-09-09T08:45:01.483Z,4.57
2022-09-09T08:47:51.819Z,6.40
2022-09-09T08:50:22.643Z,3.67
2022-09-09T08:52:54.053Z,4.32
2022-09-09T08:55:24.131Z,3.63
2022-09-09T08:57:55.244Z,3.70
2022-09-09T09:00:34.472Z,5.85
2022-09-09T09:03:11.005Z,4.63
2022-09-09T09:05:49.618Z,4.13
2022-09-09T09:08:36.331Z,5.00
2022-09-09T09:11:03.614Z,6.05
2022-09-09T09:13:53.734Z,4.57
2022-09-09T09:16:57.917Z,4.15
2022-09-09T09:19:27.329Z,4.20
2022-09-09T09:22:01.925Z,5.13
2022-09-09T09:24:47.203Z,3.60
2022-09-09T09:27:19.303Z,4.43
2022-09-09T09:30:20.360Z,6.38
2022-09-09T09:32:45.069Z,8.32
2022-09-09T09:35:14.302Z,4.57
2022-09-09T09:40:35.117Z,6.35
2022-09-09T09:43:02.948Z,6.38
2022-09-09T09:45:36.206Z,5.05
2022-09-09T09:48:07.950Z,6.32
2022-09-09T09:51:03.630Z,5.35
2022-09-09T09:53:37.033Z,6.03
2022-09-09T09:56:05.451Z,5.15
2022-09-09T09:58:39.621Z,4.18
2022-09-09T10:01:07.376Z,4.97
2022-09-09T10:03:41.467Z,6.60
2022-09-09T10:06:08.811Z,3.63
2022-09-09T10:08:47.528Z,5.65
2022-09-09T10:11:56.979Z,4.30
2022-09-09T10:14:44.091Z,2.78
2022-09-09T10:17:29.791Z,3.40
2022-09-09T10:20:22.268Z,3.97
2022-09-09T10:22:53.229Z,3.38
2022-09-09T10:25:46.681Z,2.45
2022-09-09T10:28:28.854Z,2.35
2022-09-09T10:31:09.489Z,2.10
2022-09-09T10:33:56.986Z,5.25
2022-09-09T10:36:27.590Z,4.30
2022-09-09T10:39:06.324Z,4.00
2022-09-09T10:42:06.026Z,3.33
2022-09-09T10:44:51.533Z,5.65
2022-09-09T10:47:41.830Z,4.10
2022-09-09T10:51:00.528Z,4.72
2022-09-09T10:53:34.385Z,1.40
2022-09-09T10:56:10.549Z,3.35
2022-09-09T10:58:46.185Z,4.13
2022-09-09T11:01:32.345Z,3.72
2022-09-09T11:04:07.113Z,2.80
2022-09-09T11:06:42.005Z,2.70
2022-09-09T11:09:18.205Z,4.07
2022-09-09T11:11:56.052Z,4.68
2022-09-09T11:14:37.618Z,3.42
2022-09-09T11:17:13.497Z,2.55
2022-09-09T11:19:43.714Z,2.85
2022-09-09T11:22:17.664Z,3.25
2022-09-09T11:24:51.606Z,5.88
2022-09-09T11:27:31.418Z,1.85
2022-09-09T11:30:04.442Z,2.05
2022-09-09T11:33:08.666Z,2.85
2022-09-09T11:35:54.370Z,3.35
2022-09-09T11:38:48.285Z,4.28
2022-09-09T11:41:21.094Z,2.28
2022-09-09T11:43:53.454Z,1.67
2022-09-09T11:46:42.488Z,5.32
2022-09-09T11:49:42.158Z,2.83
2022-09-09T11:52:26.629Z,3.83
2022-09-09T11:54:56.456Z,3.28
2022-09-09T11:57:35.940Z,1.75
2022-09-09T12:00:04.875Z,4.43
2022-09-09T12:02:51.271Z,1.85
2022-09-09T12:05:20.973Z,9.32
2022-09-09T12:07:57.948Z,1.83
2022-09-09T12:10:30.050Z,1.50
2022-09-09T12:13:18.951Z,2.58
2022-09-09T12:18:51.603Z,3.75
2022-09-09T12:21:34.526Z,1.77
2022-09-09T12:24:14.074Z,3.10
2022-09-09T12:26:54.859Z,6.35
2022-09-09T12:29:44.196Z,1.90
2022-09-09T12:32:12.520Z,4.35
2022-09-09T12:35:03.709Z,4.10
2022-09-09T12:37:38.171Z,1.40
2022-09-09T12:40:23.627Z,4.28
2022-09-09T12:42:51.347Z,2.90
2022-09-09T12:45:20.284Z,3.10
2022-09-09T12:47:47.191Z,3.53
2022-09-09T12:50:22.801Z,2.45
2022-09-09T12:52:56.438Z,1.02
2022-09-09T12:55:28.851Z,2.78
2022-09-09T12:57:56.489Z,3.60
2022-09-09T13:00:25.675Z,1.90
2022-09-09T13:02:57.917Z,3.00
2022-09-09T13:05:42.744Z,2.30
2022-09-09T13:08:12.481Z,2.35
2022-09-09T13:11:05.348Z,1.10
2022-09-09T13:13:41.835Z,3.63
2022-09-09T13:16:21.952Z,1.80
2022-09-09T13:18:50.435Z,4.15
2022-09-09T13:21:18.060Z,3.88
2022-09-09T13:23:50.657Z,4.63
2022-09-09T13:26:25.222Z,4.32
2022-09-09T13:28:53.985Z,4.13
2022-09-09T13:31:30.156Z,3.25
2022-09-09T13:33:58.641Z,1.40
2022-09-09T13:36:31.623Z,3.42
2022-09-09T13:39:01.144Z,5.25
2022-09-09T13:41:37.250Z,3.03
2022-09-09T13:44:07.359Z,1.90
2022-09-09T13:46:35.611Z,2.63
2022-09-09T13:49:21.549Z,4.28
2022-09-09T13:51:51.727Z,1.38
2022-09-09T13:54:20.564Z,2.00
2022-09-09T13:56:48.154Z,2.45
2022-09-09T13:59:17.680Z,2.15
2022-09-09T14:01:45.275Z,3.97
2022-09-09T14:04:12.934Z,1.98
2022-09-09T14:06:40.728Z,3.63
2022-09-09T14:09:12.667Z,4.43
2022-09-09T14:11:39.706Z,3.67
2022-09-09T14:14:06.739Z,1.83
2022-09-09T14:16:35.023Z,4.80
2022-09-09T14:19:02.054Z,6.25
2022-09-09T14:21:29.565Z,3.33
2022-09-09T14:23:59.014Z,2.80
2022-09-09T14:26:27.215Z,4.47
2022-09-09T14:28:55.643Z,3.22
2022-09-09T14:31:24.739Z,6.18
2022-09-09T14:33:52.217Z,4.13
2022-09-09T14:36:19.472Z,3.63
2022-09-09T14:38:46.630Z,1.85
2022-09-09T14:41:19.400Z,2.55
2022-09-09T14:43:47.185Z,2.33
2022-09-09T14:46:18.126Z,1.90
2022-09-09T14:48:46.285Z,3.38
2022-09-09T14:51:23.174Z,6.60
2022-09-09T14:53:54.792Z,1.88
2022-09-09T14:56:25.108Z,2.78
2022-09-09T14:58:56.207Z,1.20
2022-09-09T15:01:25.279Z,3.95
2022-09-09T15:03:58.989Z,6.40
2022-09-09T15:06:30.048Z,9.80
2022-09-09T15:09:01.088Z,3.63
2022-09-09T15:11:31.542Z,3.60
2022-09-09T15:13:59.224Z,4.65
2022-09-09T15:16:29.345Z,2.85
2022-09-09T15:18:59.135Z,4.20
2022-09-09T15:21:32.578Z,3.78
2022-09-09T15:24:00.248Z,2.13
2022-09-09T15:26:28.357Z,5.78
2022-09-09T15:28:55.774Z,4.85
2022-09-09T15:31:31.794Z,1.52
2022-09-09T15:34:04.197Z,1.80
2022-09-09T15:36:33.177Z,2.97
2022-09-09T15:39:01.507Z,3.47
2022-09-09T15:41:30.982Z,5.20
2022-09-09T15:43:59.843Z,2.20
2022-09-09T15:46:37.009Z,5.35
2022-09-09T15:49:06.406Z,3.55
2022-09-09T15:51:43.270Z,4.53
2022-09-09T15:54:13.602Z,2.85
2022-09-09T15:56:41.313Z,5.25
2022-09-09T15:59:08.268Z,4.20
2022-09-09T16:01:36.566Z,2.78
2022-09-09T16:04:04.547Z,7.05
2022-09-09T16:06:31.971Z,5.97
2022-09-09T16:09:01.920Z,4.20
2022-09-09T16:11:32.129Z,2.97
2022-09-09T16:14:00.203Z,4.60
2022-09-09T16:16:30.487Z,2.95
2022-09-09T16:19:03.494Z,4.85
2022-09-09T16:21:33.137Z,4.28
2022-09-09T16:24:03.310Z,6.07
2022-09-09T16:26:33.855Z,5.88
2022-09-09T16:29:02.349Z,1.88
2022-09-09T16:31:30.900Z,4.00
2022-09-09T16:33:58.146Z,7.43
2022-09-09T16:36:31.241Z,1.83
2022-09-09T16:39:00.528Z,2.58
2022-09-09T16:41:29.231Z,2.38
2022-09-09T16:44:03.438Z,3.10
2022-09-09T16:46:32.916Z,4.25
2022-09-09T16:49:02.168Z,5.15
2022-09-09T16:51:44.160Z,5.68
2022-09-09T16:54:13.108Z,6.63
2022-09-09T16:56:43.068Z,3.60
2022-09-09T16:59:21.125Z,2.15
2022-09-09T17:01:51.055Z,5.07
2022-09-09T17:04:25.337Z,4.57
2022-09-09T17:06:54.758Z,3.35
2022-09-09T17:09:23.683Z,3.72
2022-09-09T17:11:53.025Z,3.88
2022-09-09T17:14:21.826Z,1.60
2022-09-09T17:16:49.023Z,1.15
2022-09-09T17:19:16.847Z,3.95
2022-09-09T17:22:05.971Z,4.32
2022-09-09T17:24:31.035Z,7.50
2022-09-09T17:26:58.831Z,4.82
2022-09-09T17:29:26.388Z,2.33
2022-09-09T17:31:54.240Z,4.00
2022-09-09T17:34:21.943Z,6.32
2022-09-09T17:36:49.238Z,12.18
2022-09-09T17:39:16.893Z,14.77
2022-09-09T17:41:44.200Z,12.48
2022-09-09T17:44:12.476Z,27.13
2022-09-09T17:46:42.006Z,22.33
2022-09-09T17:49:13.071Z,32.55
2022-09-09T17:51:42.539Z,25.35
2022-09-09T17:54:17.324Z,19.63
2022-09-09T17:56:45.306Z,12.23
2022-09-09T17:59:14.779Z,14.00
2022-09-09T18:01:45.195Z,5.35
2022-09-09T18:04:14.538Z,6.03
2022-09-09T18:06:44.357Z,4.00
2022-09-09T18:09:23.889Z,5.05
2022-09-09T18:11:54.533Z,2.25
2022-09-09T18:14:32.488Z,2.45
2022-09-09T18:17:00.995Z,4.43
2022-09-09T18:19:30.940Z,5.22
2022-09-09T18:22:00.330Z,4.32
2022-09-09T18:24:30.792Z,4.00
2022-09-09T18:26:58.262Z,7.60
2022-09-09T18:29:26.378Z,6.93
2022-09-09T18:31:55.167Z,2.53
2022-09-09T18:34:23.281Z,3.85
2022-09-09T18:36:54.996Z,5.60
2022-09-09T18:39:25.169Z,5.20
2022-09-09T18:41:56.417Z,7.45
2022-09-09T18:44:26.780Z,5.88
2022-09-09T18:46:54.269Z,5.32
2022-09-09T18:49:24.382Z,5.97
2022-09-09T18:51:52.521Z,5.25
2022-09-09T18:54:23.101Z,4.68
2022-09-09T18:56:51.304Z,4.57
2022-09-09T18:59:20.916Z,3.95
2022-09-09T19:01:50.511Z,9.18
2022-09-09T19:04:19.032Z,6.03
2022-09-09T19:06:48.690Z,2.65
2022-09-09T19:09:18.298Z,5.72
2022-09-09T19:11:46.653Z,3.50
2022-09-09T19:14:17.398Z,3.77
2022-09-09T19:16:45.583Z,4.13
2022-09-09T19:19:17.897Z,7.53
2022-09-09T19:21:45.491Z,5.43
2022-09-09T19:24:22.250Z,10.83
2022-09-09T19:26:52.616Z,11.87
2022-09-09T19:29:22.323Z,9.33
2022-09-09T19:32:29.428Z,11.10
2022-09-09T19:34:40.507Z,16.37
2022-09-09T19:37:07.904Z,10.07
2022-09-09T19:39:35.109Z,9.13
2022-09-09T19:42:02.460Z,10.97
2022-09-09T19:44:29.792Z,8.27
2022-09-09T19:46:57.361Z,5.87
2022-09-09T19:49:25.700Z,7.13
2022-09-09T19:51:52.897Z,6.87
2022-09-09T19:54:20.187Z,5.57
2022-09-09T19:56:47.515Z,2.83
2022-09-09T19:59:15.661Z,4.03
2022-09-09T20:01:44.867Z,4.13
2022-09-09T20:04:15.031Z,3.93
2022-09-09T20:06:44.519Z,4.93
2022-09-09T20:09:17.269Z,5.53
2022-09-09T20:11:46.062Z,3.13
2022-09-09T20:14:14.177Z,5.93
2022-09-09T20:16:42.533Z,2.53
2022-09-09T20:19:11.445Z,7.57
2022-09-09T20:21:49.740Z,21.13
2022-09-09T20:24:19.754Z,10.57
2022-09-09T20:26:48.326Z,6.30
2022-09-09T20:29:19.025Z,8.10
2022-09-09T20:31:46.926Z,6.10
2022-09-09T20:34:19.279Z,4.93
2022-09-09T20:36:50.507Z,5.87
2022-09-09T20:39:22.842Z,11.13
2022-09-09T20:41:50.443Z,6.70
2022-09-09T20:44:20.052Z,10.13
2022-09-09T20:46:49.269Z,9.40
2022-09-09T20:49:18.739Z,12.10
2022-09-09T20:51:47.881Z,14.40
2022-09-09T20:54:21.210Z,14.43
2022-09-09T20:56:49.691Z,7.53
2022-09-09T20:59:24.830Z,5.75
2022-09-09T21:01:53.119Z,4.60
2022-09-09T21:04:21.641Z,3.53
2022-09-09T21:06:50.105Z,4.77
2022-09-09T21:09:18.029Z,3.57
2022-09-09T21:11:45.157Z,2.57
2022-09-09T21:14:13.199Z,4.10
2022-09-09T21:16:40.052Z,4.10
2022-09-09T21:19:09.162Z,3.40
2022-09-09T21:21:36.388Z,9.30
2022-09-09T21:24:03.507Z,4.20
2022-09-09T21:26:30.778Z,5.80
2022-09-09T21:28:59.581Z,3.43
2022-09-09T21:31:28.261Z,3.53
2022-09-09T21:33:57.405Z,4.97
2022-09-09T21:36:25.372Z,6.67
2022-09-09T21:38:52.230Z,6.50
2022-09-09T21:41:19.363Z,5.53
2022-09-09T21:43:49.528Z,5.37
2022-09-09T21:46:18.054Z,4.57
2022-09-09T21:48:45.470Z,6.60
2022-09-09T21:51:14.960Z,9.10
2022-09-09T21:53:43.518Z,6.73
2022-09-09T21:56:13.680Z,4.50
2022-09-09T21:58:43.457Z,3.70
2022-09-09T22:01:12.850Z,3.27
2022-09-09T22:03:42.388Z,4.30
2022-09-09T22:06:13.973Z,6.33
2022-09-09T22:08:41.667Z,8.70
2022-09-09T22:11:11.732Z,3.67
2022-09-09T22:13:38.794Z,3.33
2022-09-09T22:16:08.035Z,2.80
2022-09-09T22:18:35.475Z,3.50
2022-09-09T22:21:14.654Z,3.97
2022-09-09T22:23:41.920Z,2.28
2022-09-09T22:26:10.243Z,3.20
2022-09-09T22:28:38.663Z,1.80
2022-09-09T22:31:06.909Z,2.53
2022-09-09T22:33:34.783Z,4.45
2022-09-09T22:36:01.893Z,1.73
2022-09-09T22:38:29.402Z,4.23
2022-09-09T22:40:56.526Z,9.20
2022-09-09T22:43:23.572Z,4.80
2022-09-09T22:45:51.099Z,3.17
2022-09-09T22:48:18.717Z,2.90
2022-09-09T22:50:47.016Z,3.37
2022-09-09T22:53:16.256Z,2.80
2022-09-09T22:55:43.737Z,4.70
2022-09-09T22:58:10.709Z,4.47
2022-09-09T23:00:41.321Z,6.10
2022-09-09T23:03:08.265Z,3.40
2022-09-09T23:05:38.503Z,3.50
2022-09-09T23:08:05.968Z,3.70
2022-09-09T23:10:33.751Z,2.93
2022-09-09T23:13:00.822Z,3.37
2022-09-09T23:15:29.293Z,2.90
2022-09-09T23:17:56.186Z,1.57
2022-09-09T23:20:24.180Z,5.93
2022-09-09T23:22:51.670Z,3.27
2022-09-09T23:25:18.642Z,2.60
2022-09-09T23:27:45.594Z,3.20
2022-09-09T23:30:13.065Z,3.50
2022-09-09T23:32:39.904Z,4.10
2022-09-09T23:35:07.478Z,4.77
2022-09-09T23:37:34.925Z,2.67
2022-09-09T23:40:02.133Z,2.90
2022-09-09T23:42:33.429Z,2.70
2022-09-09T23:45:00.536Z,2.23
2022-09-09T23:47:28.264Z,2.47
2022-09-09T23:49:55.098Z,2.87
2022-09-09T23:52:24.465Z,5.60
2022-09-09T23:54:51.351Z,5.00
2022-09-09T23:57:18.554Z,2.70
2022-09-09T23:59:45.642Z,5.13
